KSSC/SSC METAR and TAF weather

Enter ICAO airport designator
Station Type Date Time Source
KSSC METAR 2022/12/05 14:55 UTC NOAA

KSSC 051455Z 07005KT 10SM BKN030 BKN040 OVC080 10/02 A3020 RMK AO2A SLP229 T00990018 52012 $


Station Type Date Time Source
KSSC Decoded METAR 2022/12/05 14:55 UTC NOAA

Shaw Air Force Base, SC, United States (KSSC) 33-58N 080-29W 73M
Dec 05, 2022 - 09:55 AM EST / 2022.12.05 1455 UTC
Wind: from the ENE (070 degrees) at 6 MPH (5 KT):0
Visibility: 10 mile(s):0
Sky conditions: overcast
Temperature: 49.8 F (9.9 C)
Dew Point: 35.2 F (1.8 C)
Relative Humidity: 57%
Pressure (altimeter): 30.2 in. Hg (1022 hPa)
Pressure tendency: 0.04 inches (1.2 hPa) higher than three hours ago
ob: KSSC 051455Z 07005KT 10SM BKN030 BKN040 OVC080 10/02 A3020 RMK AO2A SLP229 T00990018 52012
cycle: 15

Station Type Date Time Source
KSSC TAF 2022/12/05 14:34 UTC NOAA

TAF
AMD KSSC 051430Z 0514/0614 07007KT 9999 BKN025 BKN150 OVC250 QNH3014INS
TEMPO 0519/0521 8000 -SHRA
BECMG 0522/0523 07007KT 9999 SCT020 BKN070 QNH3017INS
BECMG 0600/0601 VRB06KT 9999 OVC040 QNH3018INS
BECMG 0609/0610 08007KT 8000 BR OVC020 QNH3020INS TX14/0520Z TN07/0514Z

Example: see airport list